sensor_id;sensor_type;location;lat;lon;timestamp;P1;durP1;ratioP1;P2;durP2;ratioP2
6388;SDS011;3227;42.654;23.360;2023-07-22T00:01:54;18.10;;;6.28;;
6388;SDS011;3227;42.654;23.360;2023-07-22T00:04:21;18.52;;;6.10;;
6388;SDS011;3227;42.654;23.360;2023-07-22T00:06:47;18.08;;;6.32;;
6388;SDS011;3227;42.654;23.360;2023-07-22T00:09:15;16.02;;;6.57;;
6388;SDS011;3227;42.654;23.360;2023-07-22T00:11:42;15.63;;;6.47;;
6388;SDS011;3227;42.654;23.360;2023-07-22T00:14:09;12.60;;;5.90;;
6388;SDS011;3227;42.654;23.360;2023-07-22T00:16:36;13.73;;;6.43;;
6388;SDS011;3227;42.654;23.360;2023-07-22T00:19:02;14.20;;;6.35;;
6388;SDS011;3227;42.654;23.360;2023-07-22T00:21:29;13.73;;;5.80;;
6388;SDS011;3227;42.654;23.360;2023-07-22T00:23:56;15.70;;;6.55;;
6388;SDS011;3227;42.654;23.360;2023-07-22T00:26:24;15.18;;;5.90;;
6388;SDS011;3227;42.654;23.360;2023-07-22T00:28:51;17.50;;;6.07;;
6388;SDS011;3227;42.654;23.360;2023-07-22T00:31:17;13.15;;;5.88;;
6388;SDS011;3227;42.654;23.360;2023-07-22T00:33:44;15.07;;;6.75;;
6388;SDS011;3227;42.654;23.360;2023-07-22T00:36:11;14.95;;;6.10;;
6388;SDS011;3227;42.654;23.360;2023-07-22T00:38:38;16.50;;;6.30;;
6388;SDS011;3227;42.654;23.360;2023-07-22T00:41:05;17.10;;;6.38;;
6388;SDS011;3227;42.654;23.360;2023-07-22T00:43:33;12.80;;;6.32;;
6388;SDS011;3227;42.654;23.360;2023-07-22T00:46:00;13.38;;;5.50;;
6388;SDS011;3227;42.654;23.360;2023-07-22T00:48:27;19.50;;;6.35;;
6388;SDS011;3227;42.654;23.360;2023-07-22T00:50:54;12.90;;;6.10;;
6388;SDS011;3227;42.654;23.360;2023-07-22T00:53:21;18.25;;;6.35;;
6388;SDS011;3227;42.654;23.360;2023-07-22T00:55:48;13.23;;;5.90;;
6388;SDS011;3227;42.654;23.360;2023-07-22T00:58:15;21.08;;;6.80;;
6388;SDS011;3227;42.654;23.360;2023-07-22T01:00:43;17.50;;;6.30;;
6388;SDS011;3227;42.654;23.360;2023-07-22T01:03:10;15.13;;;6.43;;
6388;SDS011;3227;42.654;23.360;2023-07-22T01:05:38;15.60;;;6.00;;
6388;SDS011;3227;42.654;23.360;2023-07-22T01:08:06;15.68;;;6.60;;
6388;SDS011;3227;42.654;23.360;2023-07-22T01:10:33;11.57;;;6.10;;
6388;SDS011;3227;42.654;23.360;2023-07-22T01:13:00;14.32;;;6.18;;
6388;SDS011;3227;42.654;23.360;2023-07-22T01:15:26;13.77;;;6.32;;
6388;SDS011;3227;42.654;23.360;2023-07-22T01:17:56;17.83;;;6.65;;
6388;SDS011;3227;42.654;23.360;2023-07-22T01:20:26;15.85;;;6.32;;
6388;SDS011;3227;42.654;23.360;2023-07-22T01:22:56;14.40;;;6.53;;
6388;SDS011;3227;42.654;23.360;2023-07-22T01:25:23;16.83;;;6.72;;
6388;SDS011;3227;42.654;23.360;2023-07-22T01:27:50;14.25;;;6.70;;
6388;SDS011;3227;42.654;23.360;2023-07-22T01:30:17;15.38;;;5.93;;
6388;SDS011;3227;42.654;23.360;2023-07-22T01:32:44;12.35;;;6.40;;
6388;SDS011;3227;42.654;23.360;2023-07-22T01:35:12;13.07;;;6.50;;
6388;SDS011;3227;42.654;23.360;2023-07-22T01:37:40;14.48;;;6.18;;
6388;SDS011;3227;42.654;23.360;2023-07-22T01:40:08;11.90;;;6.43;;
6388;SDS011;3227;42.654;23.360;2023-07-22T01:42:37;13.75;;;6.38;;
6388;SDS011;3227;42.654;23.360;2023-07-22T01:45:05;14.68;;;6.00;;
6388;SDS011;3227;42.654;23.360;2023-07-22T01:47:33;12.77;;;6.38;;
6388;SDS011;3227;42.654;23.360;2023-07-22T01:50:00;13.82;;;5.78;;
6388;SDS011;3227;42.654;23.360;2023-07-22T01:52:27;14.73;;;5.10;;
6388;SDS011;3227;42.654;23.360;2023-07-22T01:54:54;15.10;;;6.05;;
6388;SDS011;3227;42.654;23.360;2023-07-22T01:57:22;10.85;;;5.45;;
6388;SDS011;3227;42.654;23.360;2023-07-22T01:59:49;13.07;;;5.75;;
6388;SDS011;3227;42.654;23.360;2023-07-22T02:02:16;12.10;;;5.38;;
6388;SDS011;3227;42.654;23.360;2023-07-22T02:04:43;12.50;;;5.75;;
6388;SDS011;3227;42.654;23.360;2023-07-22T02:07:10;12.57;;;5.95;;
6388;SDS011;3227;42.654;23.360;2023-07-22T02:09:36;12.32;;;5.43;;
6388;SDS011;3227;42.654;23.360;2023-07-22T02:12:03;12.88;;;5.70;;
6388;SDS011;3227;42.654;23.360;2023-07-22T02:14:33;11.57;;;5.53;;
6388;SDS011;3227;42.654;23.360;2023-07-22T02:17:00;11.30;;;5.82;;
6388;SDS011;3227;42.654;23.360;2023-07-22T02:19:27;10.32;;;5.65;;
6388;SDS011;3227;42.654;23.360;2023-07-22T02:21:53;12.70;;;5.78;;
6388;SDS011;3227;42.654;23.360;2023-07-22T02:24:30;8.85;;;5.35;;
6388;SDS011;3227;42.654;23.360;2023-07-22T02:26:57;14.52;;;5.32;;
6388;SDS011;3227;42.654;23.360;2023-07-22T02:29:24;10.35;;;5.50;;
6388;SDS011;3227;42.654;23.360;2023-07-22T02:31:52;11.75;;;5.32;;
6388;SDS011;3227;42.654;23.360;2023-07-22T02:34:19;13.07;;;5.60;;
6388;SDS011;3227;42.654;23.360;2023-07-22T02:36:47;9.73;;;5.85;;
6388;SDS011;3227;42.654;23.360;2023-07-22T02:39:12;9.65;;;5.43;;
6388;SDS011;3227;42.654;23.360;2023-07-22T02:41:39;12.23;;;5.45;;
6388;SDS011;3227;42.654;23.360;2023-07-22T02:44:06;12.57;;;5.65;;
6388;SDS011;3227;42.654;23.360;2023-07-22T02:46:33;8.70;;;5.55;;
6388;SDS011;3227;42.654;23.360;2023-07-22T02:49:01;10.07;;;5.35;;
6388;SDS011;3227;42.654;23.360;2023-07-22T02:51:28;12.48;;;5.82;;
6388;SDS011;3227;42.654;23.360;2023-07-22T02:53:55;11.35;;;5.35;;
6388;SDS011;3227;42.654;23.360;2023-07-22T02:56:21;13.30;;;5.93;;
6388;SDS011;3227;42.654;23.360;2023-07-22T02:58:48;13.88;;;5.72;;
6388;SDS011;3227;42.654;23.360;2023-07-22T03:01:16;12.82;;;5.60;;
6388;SDS011;3227;42.654;23.360;2023-07-22T03:03:43;10.35;;;5.43;;
6388;SDS011;3227;42.654;23.360;2023-07-22T03:06:11;11.25;;;5.80;;
6388;SDS011;3227;42.654;23.360;2023-07-22T03:08:38;11.45;;;5.88;;
6388;SDS011;3227;42.654;23.360;2023-07-22T03:11:05;12.15;;;5.88;;
6388;SDS011;3227;42.654;23.360;2023-07-22T03:13:32;13.25;;;5.70;;
6388;SDS011;3227;42.654;23.360;2023-07-22T03:16:00;15.18;;;6.75;;
6388;SDS011;3227;42.654;23.360;2023-07-22T03:18:29;12.23;;;5.90;;
6388;SDS011;3227;42.654;23.360;2023-07-22T03:20:56;13.10;;;6.43;;
6388;SDS011;3227;42.654;23.360;2023-07-22T03:23:24;15.98;;;6.70;;
6388;SDS011;3227;42.654;23.360;2023-07-22T03:25:50;15.10;;;6.28;;
6388;SDS011;3227;42.654;23.360;2023-07-22T03:28:17;18.50;;;6.55;;
6388;SDS011;3227;42.654;23.360;2023-07-22T03:30:44;13.20;;;6.43;;
6388;SDS011;3227;42.654;23.360;2023-07-22T03:33:11;16.00;;;6.55;;
6388;SDS011;3227;42.654;23.360;2023-07-22T03:35:37;15.30;;;6.75;;
6388;SDS011;3227;42.654;23.360;2023-07-22T03:38:04;14.48;;;6.35;;
6388;SDS011;3227;42.654;23.360;2023-07-22T03:40:33;19.05;;;6.93;;
6388;SDS011;3227;42.654;23.360;2023-07-22T03:42:59;18.45;;;6.50;;
6388;SDS011;3227;42.654;23.360;2023-07-22T03:45:26;12.57;;;6.43;;
6388;SDS011;3227;42.654;23.360;2023-07-22T03:47:57;16.88;;;7.13;;
6388;SDS011;3227;42.654;23.360;2023-07-22T03:50:26;15.25;;;6.85;;
6388;SDS011;3227;42.654;23.360;2023-07-22T03:52:53;20.65;;;6.50;;
6388;SDS011;3227;42.654;23.360;2023-07-22T03:55:20;19.80;;;6.50;;
6388;SDS011;3227;42.654;23.360;2023-07-22T03:57:48;11.88;;;6.68;;
6388;SDS011;3227;42.654;23.360;2023-07-22T04:00:15;12.88;;;5.93;;
6388;SDS011;3227;42.654;23.360;2023-07-22T04:02:42;13.52;;;6.07;;
6388;SDS011;3227;42.654;23.360;2023-07-22T04:05:09;12.45;;;5.88;;
6388;SDS011;3227;42.654;23.360;2023-07-22T04:07:36;13.80;;;7.18;;
6388;SDS011;3227;42.654;23.360;2023-07-22T04:10:03;13.25;;;5.95;;
6388;SDS011;3227;42.654;23.360;2023-07-22T04:12:30;13.35;;;6.20;;
6388;SDS011;3227;42.654;23.360;2023-07-22T04:14:59;17.63;;;6.15;;
6388;SDS011;3227;42.654;23.360;2023-07-22T04:17:26;13.15;;;6.10;;
6388;SDS011;3227;42.654;23.360;2023-07-22T04:19:52;15.85;;;5.95;;
6388;SDS011;3227;42.654;23.360;2023-07-22T04:22:19;16.98;;;6.25;;
6388;SDS011;3227;42.654;23.360;2023-07-22T04:24:46;15.57;;;6.18;;
6388;SDS011;3227;42.654;23.360;2023-07-22T04:27:14;13.80;;;6.95;;
6388;SDS011;3227;42.654;23.360;2023-07-22T04:29:41;16.80;;;7.30;;
6388;SDS011;3227;42.654;23.360;2023-07-22T04:32:09;13.73;;;6.32;;
6388;SDS011;3227;42.654;23.360;2023-07-22T04:34:51;13.23;;;6.57;;
6388;SDS011;3227;42.654;23.360;2023-07-22T04:37:19;12.68;;;6.25;;
6388;SDS011;3227;42.654;23.360;2023-07-22T04:39:49;14.18;;;6.75;;
6388;SDS011;3227;42.654;23.360;2023-07-22T04:42:15;18.45;;;8.45;;
6388;SDS011;3227;42.654;23.360;2023-07-22T04:44:43;18.48;;;7.90;;
6388;SDS011;3227;42.654;23.360;2023-07-22T04:47:11;15.40;;;8.18;;
6388;SDS011;3227;42.654;23.360;2023-07-22T04:49:38;14.45;;;7.65;;
6388;SDS011;3227;42.654;23.360;2023-07-22T04:52:05;14.80;;;7.28;;
6388;SDS011;3227;42.654;23.360;2023-07-22T04:54:33;12.20;;;8.00;;
6388;SDS011;3227;42.654;23.360;2023-07-22T04:56:59;16.67;;;8.30;;
6388;SDS011;3227;42.654;23.360;2023-07-22T04:59:27;17.33;;;8.05;;
6388;SDS011;3227;42.654;23.360;2023-07-22T05:01:54;17.52;;;7.63;;
6388;SDS011;3227;42.654;23.360;2023-07-22T05:04:22;19.70;;;8.13;;
6388;SDS011;3227;42.654;23.360;2023-07-22T05:06:49;15.05;;;7.63;;
6388;SDS011;3227;42.654;23.360;2023-07-22T05:09:16;18.35;;;7.50;;
6388;SDS011;3227;42.654;23.360;2023-07-22T05:11:43;16.08;;;8.07;;
6388;SDS011;3227;42.654;23.360;2023-07-22T05:14:10;11.27;;;7.22;;
6388;SDS011;3227;42.654;23.360;2023-07-22T05:16:36;13.13;;;7.22;;
6388;SDS011;3227;42.654;23.360;2023-07-22T05:19:03;14.85;;;7.97;;
6388;SDS011;3227;42.654;23.360;2023-07-22T05:21:31;14.55;;;7.28;;
6388;SDS011;3227;42.654;23.360;2023-07-22T05:23:58;24.05;;;7.78;;
6388;SDS011;3227;42.654;23.360;2023-07-22T05:26:25;16.00;;;7.82;;
6388;SDS011;3227;42.654;23.360;2023-07-22T05:28:52;14.10;;;8.25;;
6388;SDS011;3227;42.654;23.360;2023-07-22T05:31:18;15.02;;;8.30;;
6388;SDS011;3227;42.654;23.360;2023-07-22T05:33:45;14.98;;;8.38;;
6388;SDS011;3227;42.654;23.360;2023-07-22T05:36:12;14.13;;;7.55;;
6388;SDS011;3227;42.654;23.360;2023-07-22T05:38:40;18.02;;;7.65;;
6388;SDS011;3227;42.654;23.360;2023-07-22T05:41:07;17.73;;;7.80;;
6388;SDS011;3227;42.654;23.360;2023-07-22T05:43:33;14.55;;;7.25;;
6388;SDS011;3227;42.654;23.360;2023-07-22T05:46:00;12.77;;;7.43;;
6388;SDS011;3227;42.654;23.360;2023-07-22T05:48:27;13.88;;;7.93;;
6388;SDS011;3227;42.654;23.360;2023-07-22T05:50:54;12.05;;;7.40;;
6388;SDS011;3227;42.654;23.360;2023-07-22T05:53:21;17.15;;;7.78;;
6388;SDS011;3227;42.654;23.360;2023-07-22T05:55:49;10.98;;;6.75;;
6388;SDS011;3227;42.654;23.360;2023-07-22T05:58:16;11.38;;;6.78;;
6388;SDS011;3227;42.654;23.360;2023-07-22T06:00:43;15.93;;;7.25;;
6388;SDS011;3227;42.654;23.360;2023-07-22T06:03:10;12.93;;;7.53;;
6388;SDS011;3227;42.654;23.360;2023-07-22T06:05:37;10.93;;;7.15;;
6388;SDS011;3227;42.654;23.360;2023-07-22T06:08:04;15.82;;;7.20;;
6388;SDS011;3227;42.654;23.360;2023-07-22T06:10:31;14.48;;;7.32;;
6388;SDS011;3227;42.654;23.360;2023-07-22T06:12:59;15.48;;;7.15;;
6388;SDS011;3227;42.654;23.360;2023-07-22T06:15:26;19.20;;;8.13;;
6388;SDS011;3227;42.654;23.360;2023-07-22T06:17:53;17.13;;;8.60;;
6388;SDS011;3227;42.654;23.360;2023-07-22T06:20:20;14.15;;;7.90;;
6388;SDS011;3227;42.654;23.360;2023-07-22T06:22:46;15.07;;;8.05;;
6388;SDS011;3227;42.654;23.360;2023-07-22T06:25:13;11.68;;;7.22;;
6388;SDS011;3227;42.654;23.360;2023-07-22T06:27:40;16.50;;;8.23;;
6388;SDS011;3227;42.654;23.360;2023-07-22T06:30:09;18.52;;;8.77;;
6388;SDS011;3227;42.654;23.360;2023-07-22T06:32:36;14.98;;;8.13;;
6388;SDS011;3227;42.654;23.360;2023-07-22T06:35:04;16.33;;;7.88;;
6388;SDS011;3227;42.654;23.360;2023-07-22T06:37:31;13.20;;;7.28;;
6388;SDS011;3227;42.654;23.360;2023-07-22T06:39:58;14.45;;;8.43;;
6388;SDS011;3227;42.654;23.360;2023-07-22T06:42:24;18.17;;;8.32;;
6388;SDS011;3227;42.654;23.360;2023-07-22T06:44:52;16.30;;;8.45;;
6388;SDS011;3227;42.654;23.360;2023-07-22T06:47:20;17.58;;;8.05;;
6388;SDS011;3227;42.654;23.360;2023-07-22T06:49:47;16.83;;;8.30;;
6388;SDS011;3227;42.654;23.360;2023-07-22T06:52:15;14.95;;;7.55;;
6388;SDS011;3227;42.654;23.360;2023-07-22T06:54:47;15.93;;;8.00;;
6388;SDS011;3227;42.654;23.360;2023-07-22T06:57:13;17.77;;;8.30;;
6388;SDS011;3227;42.654;23.360;2023-07-22T06:59:40;14.02;;;7.60;;
6388;SDS011;3227;42.654;23.360;2023-07-22T07:02:07;13.82;;;8.00;;
6388;SDS011;3227;42.654;23.360;2023-07-22T07:04:36;12.40;;;7.28;;
6388;SDS011;3227;42.654;23.360;2023-07-22T07:07:04;13.75;;;6.93;;
6388;SDS011;3227;42.654;23.360;2023-07-22T07:09:31;15.85;;;7.80;;
6388;SDS011;3227;42.654;23.360;2023-07-22T07:11:58;15.90;;;7.40;;
6388;SDS011;3227;42.654;23.360;2023-07-22T07:14:25;14.40;;;7.25;;
6388;SDS011;3227;42.654;23.360;2023-07-22T07:16:51;13.98;;;7.25;;
6388;SDS011;3227;42.654;23.360;2023-07-22T07:19:18;13.23;;;7.25;;
6388;SDS011;3227;42.654;23.360;2023-07-22T07:21:46;12.88;;;7.32;;
6388;SDS011;3227;42.654;23.360;2023-07-22T07:24:13;15.43;;;7.72;;
6388;SDS011;3227;42.654;23.360;2023-07-22T07:26:40;13.43;;;7.88;;
6388;SDS011;3227;42.654;23.360;2023-07-22T07:29:07;15.07;;;7.57;;
6388;SDS011;3227;42.654;23.360;2023-07-22T07:31:33;13.82;;;7.50;;
6388;SDS011;3227;42.654;23.360;2023-07-22T07:34:00;14.63;;;7.45;;
6388;SDS011;3227;42.654;23.360;2023-07-22T07:36:27;15.15;;;7.80;;
6388;SDS011;3227;42.654;23.360;2023-07-22T07:38:55;16.35;;;7.60;;
6388;SDS011;3227;42.654;23.360;2023-07-22T07:41:22;13.25;;;7.95;;
6388;SDS011;3227;42.654;23.360;2023-07-22T07:43:49;14.27;;;7.82;;
6388;SDS011;3227;42.654;23.360;2023-07-22T07:46:16;12.25;;;7.70;;
6388;SDS011;3227;42.654;23.360;2023-07-22T07:48:45;15.32;;;8.30;;
6388;SDS011;3227;42.654;23.360;2023-07-22T07:51:12;18.48;;;8.02;;
6388;SDS011;3227;42.654;23.360;2023-07-22T07:53:40;14.63;;;8.38;;
6388;SDS011;3227;42.654;23.360;2023-07-22T07:56:08;14.95;;;7.95;;
6388;SDS011;3227;42.654;23.360;2023-07-22T07:58:36;14.68;;;8.52;;
6388;SDS011;3227;42.654;23.360;2023-07-22T08:01:03;16.75;;;8.60;;
6388;SDS011;3227;42.654;23.360;2023-07-22T08:03:30;15.05;;;7.95;;
6388;SDS011;3227;42.654;23.360;2023-07-22T08:05:57;15.02;;;7.93;;
6388;SDS011;3227;42.654;23.360;2023-07-22T08:08:25;15.20;;;8.13;;
6388;SDS011;3227;42.654;23.360;2023-07-22T08:10:58;13.90;;;8.75;;
6388;SDS011;3227;42.654;23.360;2023-07-22T08:13:27;16.88;;;7.80;;
6388;SDS011;3227;42.654;23.360;2023-07-22T08:15:56;14.63;;;8.20;;
6388;SDS011;3227;42.654;23.360;2023-07-22T08:18:23;13.73;;;8.90;;
6388;SDS011;3227;42.654;23.360;2023-07-22T08:20:50;16.88;;;8.73;;
6388;SDS011;3227;42.654;23.360;2023-07-22T08:23:18;17.67;;;8.60;;
6388;SDS011;3227;42.654;23.360;2023-07-22T08:25:44;16.27;;;9.43;;
6388;SDS011;3227;42.654;23.360;2023-07-22T08:28:12;16.65;;;8.63;;
6388;SDS011;3227;42.654;23.360;2023-07-22T08:30:40;16.70;;;8.80;;
6388;SDS011;3227;42.654;23.360;2023-07-22T08:33:07;13.18;;;8.55;;
6388;SDS011;3227;42.654;23.360;2023-07-22T08:35:34;18.13;;;8.30;;
6388;SDS011;3227;42.654;23.360;2023-07-22T08:38:01;16.77;;;9.23;;
6388;SDS011;3227;42.654;23.360;2023-07-22T08:40:32;18.37;;;9.53;;
6388;SDS011;3227;42.654;23.360;2023-07-22T08:43:00;16.38;;;8.68;;
6388;SDS011;3227;42.654;23.360;2023-07-22T08:45:29;20.65;;;9.57;;
6388;SDS011;3227;42.654;23.360;2023-07-22T08:48:02;15.38;;;9.65;;
6388;SDS011;3227;42.654;23.360;2023-07-22T08:50:33;23.55;;;11.18;;
6388;SDS011;3227;42.654;23.360;2023-07-22T08:53:03;17.92;;;9.10;;
6388;SDS011;3227;42.654;23.360;2023-07-22T08:55:30;16.73;;;8.77;;
6388;SDS011;3227;42.654;23.360;2023-07-22T08:57:57;18.90;;;9.52;;
6388;SDS011;3227;42.654;23.360;2023-07-22T09:00:24;19.25;;;9.32;;
6388;SDS011;3227;42.654;23.360;2023-07-22T09:02:53;13.80;;;8.88;;
6388;SDS011;3227;42.654;23.360;2023-07-22T09:05:21;26.23;;;9.60;;
6388;SDS011;3227;42.654;23.360;2023-07-22T09:07:48;20.58;;;8.98;;
6388;SDS011;3227;42.654;23.360;2023-07-22T09:10:16;17.08;;;8.57;;
6388;SDS011;3227;42.654;23.360;2023-07-22T09:12:44;20.40;;;8.30;;
6388;SDS011;3227;42.654;23.360;2023-07-22T09:15:12;18.27;;;9.07;;
6388;SDS011;3227;42.654;23.360;2023-07-22T09:17:39;20.48;;;9.63;;
6388;SDS011;3227;42.654;23.360;2023-07-22T09:20:07;15.43;;;9.45;;
6388;SDS011;3227;42.654;23.360;2023-07-22T09:22:35;20.30;;;9.10;;
6388;SDS011;3227;42.654;23.360;2023-07-22T09:25:16;15.13;;;8.57;;
6388;SDS011;3227;42.654;23.360;2023-07-22T09:27:45;19.58;;;8.52;;
6388;SDS011;3227;42.654;23.360;2023-07-22T09:30:21;23.95;;;9.02;;
6388;SDS011;3227;42.654;23.360;2023-07-22T09:32:49;23.60;;;8.52;;
6388;SDS011;3227;42.654;23.360;2023-07-22T09:35:17;18.33;;;8.48;;
6388;SDS011;3227;42.654;23.360;2023-07-22T09:37:46;15.70;;;8.15;;
6388;SDS011;3227;42.654;23.360;2023-07-22T09:40:14;18.60;;;9.30;;
6388;SDS011;3227;42.654;23.360;2023-07-22T09:42:43;22.02;;;9.05;;
6388;SDS011;3227;42.654;23.360;2023-07-22T09:45:11;19.88;;;8.88;;
6388;SDS011;3227;42.654;23.360;2023-07-22T09:47:41;20.08;;;8.88;;
6388;SDS011;3227;42.654;23.360;2023-07-22T09:50:16;22.43;;;9.63;;
6388;SDS011;3227;42.654;23.360;2023-07-22T09:52:50;19.05;;;9.10;;
6388;SDS011;3227;42.654;23.360;2023-07-22T09:55:19;18.08;;;8.70;;
6388;SDS011;3227;42.654;23.360;2023-07-22T09:57:49;14.95;;;8.55;;
6388;SDS011;3227;42.654;23.360;2023-07-22T10:00:17;22.67;;;9.50;;
6388;SDS011;3227;42.654;23.360;2023-07-22T10:02:46;27.77;;;8.90;;
6388;SDS011;3227;42.654;23.360;2023-07-22T10:05:15;18.40;;;8.88;;
6388;SDS011;3227;42.654;23.360;2023-07-22T10:07:44;24.02;;;8.95;;
6388;SDS011;3227;42.654;23.360;2023-07-22T10:10:14;21.63;;;8.93;;
6388;SDS011;3227;42.654;23.360;2023-07-22T10:12:43;24.98;;;9.43;;
6388;SDS011;3227;42.654;23.360;2023-07-22T10:15:10;20.50;;;8.40;;
6388;SDS011;3227;42.654;23.360;2023-07-22T10:17:39;17.35;;;8.32;;
6388;SDS011;3227;42.654;23.360;2023-07-22T10:20:06;19.83;;;9.10;;
6388;SDS011;3227;42.654;23.360;2023-07-22T10:22:36;19.20;;;8.77;;
6388;SDS011;3227;42.654;23.360;2023-07-22T10:27:51;18.88;;;8.75;;
6388;SDS011;3227;42.654;23.360;2023-07-22T10:30:19;20.38;;;9.20;;
6388;SDS011;3227;42.654;23.360;2023-07-22T10:32:47;16.30;;;8.48;;
6388;SDS011;3227;42.654;23.360;2023-07-22T10:35:16;21.67;;;8.57;;
6388;SDS011;3227;42.654;23.360;2023-07-22T10:37:48;21.08;;;7.57;;
6388;SDS011;3227;42.654;23.360;2023-07-22T10:40:19;20.33;;;8.65;;
6388;SDS011;3227;42.654;23.360;2023-07-22T10:42:53;18.65;;;8.65;;
6388;SDS011;3227;42.654;23.360;2023-07-22T10:45:23;20.63;;;8.93;;
6388;SDS011;3227;42.654;23.360;2023-07-22T10:47:59;22.65;;;8.57;;
6388;SDS011;3227;42.654;23.360;2023-07-22T10:50:37;20.98;;;7.50;;
6388;SDS011;3227;42.654;23.360;2023-07-22T10:53:06;22.42;;;8.02;;
6388;SDS011;3227;42.654;23.360;2023-07-22T10:55:32;31.40;;;7.47;;
6388;SDS011;3227;42.654;23.360;2023-07-22T10:58:04;20.88;;;6.82;;
6388;SDS011;3227;42.654;23.360;2023-07-22T11:00:31;26.42;;;6.78;;
6388;SDS011;3227;42.654;23.360;2023-07-22T11:03:11;28.80;;;7.07;;
6388;SDS011;3227;42.654;23.360;2023-07-22T11:05:49;29.23;;;7.20;;
6388;SDS011;3227;42.654;23.360;2023-07-22T11:11:03;25.50;;;6.30;;
6388;SDS011;3227;42.654;23.360;2023-07-22T11:13:31;31.95;;;7.03;;
6388;SDS011;3227;42.654;23.360;2023-07-22T11:16:03;32.20;;;7.82;;
6388;SDS011;3227;42.654;23.360;2023-07-22T11:18:37;28.10;;;6.50;;
6388;SDS011;3227;42.654;23.360;2023-07-22T11:21:07;26.75;;;7.13;;
6388;SDS011;3227;42.654;23.360;2023-07-22T11:23:34;24.23;;;7.47;;
6388;SDS011;3227;42.654;23.360;2023-07-22T11:26:01;26.88;;;6.78;;
6388;SDS011;3227;42.654;23.360;2023-07-22T11:28:28;31.77;;;7.18;;
6388;SDS011;3227;42.654;23.360;2023-07-22T11:30:57;29.73;;;7.57;;
6388;SDS011;3227;42.654;23.360;2023-07-22T11:33:26;26.17;;;6.63;;
6388;SDS011;3227;42.654;23.360;2023-07-22T11:36:03;28.75;;;6.95;;
6388;SDS011;3227;42.654;23.360;2023-07-22T11:38:30;27.48;;;7.45;;
6388;SDS011;3227;42.654;23.360;2023-07-22T11:40:56;31.05;;;6.38;;
6388;SDS011;3227;42.654;23.360;2023-07-22T11:43:24;27.38;;;6.45;;
6388;SDS011;3227;42.654;23.360;2023-07-22T11:45:51;29.52;;;7.50;;
6388;SDS011;3227;42.654;23.360;2023-07-22T11:48:19;28.73;;;7.38;;
6388;SDS011;3227;42.654;23.360;2023-07-22T11:50:46;33.38;;;8.38;;
6388;SDS011;3227;42.654;23.360;2023-07-22T11:53:13;30.92;;;6.68;;
6388;SDS011;3227;42.654;23.360;2023-07-22T11:55:45;23.58;;;6.72;;
6388;SDS011;3227;42.654;23.360;2023-07-22T11:58:12;24.35;;;6.80;;
6388;SDS011;3227;42.654;23.360;2023-07-22T12:00:41;31.90;;;7.35;;
6388;SDS011;3227;42.654;23.360;2023-07-22T12:03:09;25.02;;;6.18;;
6388;SDS011;3227;42.654;23.360;2023-07-22T12:05:37;32.63;;;6.88;;
6388;SDS011;3227;42.654;23.360;2023-07-22T12:08:05;31.67;;;6.75;;
6388;SDS011;3227;42.654;23.360;2023-07-22T12:10:32;23.38;;;6.78;;
6388;SDS011;3227;42.654;23.360;2023-07-22T12:13:00;22.45;;;6.72;;
6388;SDS011;3227;42.654;23.360;2023-07-22T12:15:27;21.95;;;6.32;;
6388;SDS011;3227;42.654;23.360;2023-07-22T12:17:54;25.05;;;6.70;;
6388;SDS011;3227;42.654;23.360;2023-07-22T12:20:23;25.35;;;6.57;;
6388;SDS011;3227;42.654;23.360;2023-07-22T12:22:52;26.25;;;6.32;;
6388;SDS011;3227;42.654;23.360;2023-07-22T12:25:19;24.63;;;6.20;;
6388;SDS011;3227;42.654;23.360;2023-07-22T12:27:46;27.02;;;6.35;;
6388;SDS011;3227;42.654;23.360;2023-07-22T12:30:13;25.08;;;6.55;;
6388;SDS011;3227;42.654;23.360;2023-07-22T12:32:41;30.20;;;7.07;;
6388;SDS011;3227;42.654;23.360;2023-07-22T12:35:08;23.15;;;6.57;;
6388;SDS011;3227;42.654;23.360;2023-07-22T12:37:35;25.77;;;6.50;;
6388;SDS011;3227;42.654;23.360;2023-07-22T12:40:04;26.52;;;6.57;;
6388;SDS011;3227;42.654;23.360;2023-07-22T12:42:33;25.65;;;6.45;;
6388;SDS011;3227;42.654;23.360;2023-07-22T12:45:00;29.65;;;6.72;;
6388;SDS011;3227;42.654;23.360;2023-07-22T12:47:26;26.42;;;6.75;;
6388;SDS011;3227;42.654;23.360;2023-07-22T12:49:53;27.50;;;7.05;;
6388;SDS011;3227;42.654;23.360;2023-07-22T12:52:20;27.48;;;6.80;;
6388;SDS011;3227;42.654;23.360;2023-07-22T12:54:47;30.17;;;6.70;;
6388;SDS011;3227;42.654;23.360;2023-07-22T12:57:15;27.52;;;6.28;;
6388;SDS011;3227;42.654;23.360;2023-07-22T12:59:41;28.67;;;6.50;;
6388;SDS011;3227;42.654;23.360;2023-07-22T13:02:08;28.00;;;6.72;;
6388;SDS011;3227;42.654;23.360;2023-07-22T13:04:35;23.10;;;6.35;;
6388;SDS011;3227;42.654;23.360;2023-07-22T13:07:02;26.17;;;6.60;;
6388;SDS011;3227;42.654;23.360;2023-07-22T13:09:29;27.95;;;6.53;;
6388;SDS011;3227;42.654;23.360;2023-07-22T13:11:56;29.33;;;7.18;;
6388;SDS011;3227;42.654;23.360;2023-07-22T13:14:24;32.30;;;6.60;;
6388;SDS011;3227;42.654;23.360;2023-07-22T13:16:51;26.10;;;6.28;;
6388;SDS011;3227;42.654;23.360;2023-07-22T13:19:18;23.02;;;6.18;;
6388;SDS011;3227;42.654;23.360;2023-07-22T13:21:44;21.42;;;7.22;;
6388;SDS011;3227;42.654;23.360;2023-07-22T13:24:11;23.92;;;5.95;;
6388;SDS011;3227;42.654;23.360;2023-07-22T13:26:38;25.98;;;6.85;;
6388;SDS011;3227;42.654;23.360;2023-07-22T13:29:05;25.33;;;6.70;;
6388;SDS011;3227;42.654;23.360;2023-07-22T13:31:35;28.73;;;5.93;;
6388;SDS011;3227;42.654;23.360;2023-07-22T13:34:02;29.40;;;7.10;;
6388;SDS011;3227;42.654;23.360;2023-07-22T13:36:29;24.98;;;6.22;;
6388;SDS011;3227;42.654;23.360;2023-07-22T13:38:55;23.75;;;6.60;;
6388;SDS011;3227;42.654;23.360;2023-07-22T13:41:22;25.90;;;6.03;;
6388;SDS011;3227;42.654;23.360;2023-07-22T13:43:49;27.77;;;6.22;;
6388;SDS011;3227;42.654;23.360;2023-07-22T13:46:16;26.55;;;6.45;;
6388;SDS011;3227;42.654;23.360;2023-07-22T13:48:44;24.35;;;5.80;;
6388;SDS011;3227;42.654;23.360;2023-07-22T13:51:11;29.75;;;6.68;;
6388;SDS011;3227;42.654;23.360;2023-07-22T13:53:37;32.47;;;6.82;;
6388;SDS011;3227;42.654;23.360;2023-07-22T13:56:04;24.50;;;6.13;;
6388;SDS011;3227;42.654;23.360;2023-07-22T13:58:32;25.25;;;6.50;;
6388;SDS011;3227;42.654;23.360;2023-07-22T14:00:58;23.17;;;6.60;;
6388;SDS011;3227;42.654;23.360;2023-07-22T14:03:25;26.85;;;6.63;;
6388;SDS011;3227;42.654;23.360;2023-07-22T14:05:53;28.55;;;6.63;;
6388;SDS011;3227;42.654;23.360;2023-07-22T14:08:21;28.73;;;6.47;;
6388;SDS011;3227;42.654;23.360;2023-07-22T14:10:47;40.90;;;7.85;;
6388;SDS011;3227;42.654;23.360;2023-07-22T14:13:14;26.38;;;5.95;;
6388;SDS011;3227;42.654;23.360;2023-07-22T14:15:41;25.23;;;6.85;;
6388;SDS011;3227;42.654;23.360;2023-07-22T14:18:08;24.90;;;6.65;;
6388;SDS011;3227;42.654;23.360;2023-07-22T14:20:34;31.77;;;6.32;;
6388;SDS011;3227;42.654;23.360;2023-07-22T14:23:02;26.63;;;6.25;;
6388;SDS011;3227;42.654;23.360;2023-07-22T14:25:29;30.23;;;6.70;;
6388;SDS011;3227;42.654;23.360;2023-07-22T14:27:56;30.92;;;6.47;;
6388;SDS011;3227;42.654;23.360;2023-07-22T14:30:23;20.83;;;5.80;;
6388;SDS011;3227;42.654;23.360;2023-07-22T14:32:50;24.98;;;6.40;;
6388;SDS011;3227;42.654;23.360;2023-07-22T14:35:16;28.13;;;6.13;;
6388;SDS011;3227;42.654;23.360;2023-07-22T14:37:43;27.33;;;6.65;;
6388;SDS011;3227;42.654;23.360;2023-07-22T14:40:12;26.90;;;6.50;;
6388;SDS011;3227;42.654;23.360;2023-07-22T14:42:39;28.45;;;6.55;;
6388;SDS011;3227;42.654;23.360;2023-07-22T14:45:06;31.05;;;6.40;;
6388;SDS011;3227;42.654;23.360;2023-07-22T14:47:34;23.65;;;5.80;;
6388;SDS011;3227;42.654;23.360;2023-07-22T14:50:01;28.95;;;6.20;;
6388;SDS011;3227;42.654;23.360;2023-07-22T14:52:28;25.63;;;6.53;;
6388;SDS011;3227;42.654;23.360;2023-07-22T14:54:54;25.17;;;6.78;;
6388;SDS011;3227;42.654;23.360;2023-07-22T14:57:23;30.70;;;6.75;;